Terminal Aerodrome Forecast
Issued by NWS

Home | Current Version | Previous Version | Text Only | Print | Product List | Glossary On
Versions: 1 2 3 4 5 6 7 8 9 10 11 12 13
000
FTAK31 PAJN 190540 RRB
TAFAWG
TAF
PAWG 190540Z 1906/2006 09006KT P6SM VCSH BKN040 OVC070
     FM190900 09005KT P6SM -SHRA BKN045 OVC090
      TEMPO 1915/1919 5SM SHRA BR BKN025 OVC035
     FM192300 09004KT P6SM VCSH OVC060
      AMD LTD TO CLD VIS AND WIND 1906/1915=

USA.gov is the U.S. government's official web portal to all federal, state and local government web resources and services.